Atlantic, Maine
Current Conditions -  °F | °C
As of 9:35 AM on Saturday 22 Nov 2014 (Local Time) from KBHB Reporting Station
Overcast Overcast  
Wind Chill: 21°   Ceiling: 8500
Heat Index: 28°   Visibility: 10mi
Dew Point: 16°   Wind: 7mph
Humidity: 59%   Direction: 240°WSW
Pressure: 30.26"   Gusts: 18mph
Location:  44.1716°N, 68.4245°W
Report Text: KBHB 221435Z AUTO 24006G16KT 10SM OVC085 M02/M09 A3026 RMK AO1
Loading
Personal Weather Stations






























Interactive Weather Map New forecast layout! Learn more

10-Day Weather Forecast

Advertisements
Track Severe Weather on mobile